Volcan De Tamasite — ECFE — position and weather

sailwx.info

Track history (hours):
 
Tides and Currents Weather Stations Pressure Air Temp Water Temp Dewpoint Dewpoint Depression Visibility Wind Speed Wind Dir Waves Ship Positions

Volcan De Tamasite

Last reported at 2016-Jul-26 22:19 UTC. Time now 2016-Jul-30 18:51 UTC.
Position N 35°33' W 002°58'.

Length 141 m; draft 5.1 m.

Type: Passenger vessel. MMSI: 224093000.

Date/timePositionNaut miles runAvg speedWind from/ knotsBaromVisibWave heightAir tempDewpointWater temp
2016-Jul-26 22:19N 35°33' W 002°58'1621.3
2016-Jul-26 21:33N 35°18' W 002°55'1 1.3
2016-Jul-26 20:32N 35°16' W 002°56'1212.6
2016-Jul-26 19:33N 35°28' W 002°52'2121.4
2016-Jul-26 18:33N 35°49' W 002°46'2222.1
2016-Jul-26 17:33N 36°10' W 002°39'2221.9
2016-Jul-26 16:34N 36°32' W 002°33'1918.6
2016-Jul-26 15:33N 36°50' W 002°28'0 0.0
2016-Jul-26 14:33N 36°50' W 002°28'6 5.9
2016-Jul-26 13:34N 36°44' W 002°29'2221.7
2016-Jul-26 12:34N 36°23' W 002°34'2821.1
2016-Jul-26 11:14N 35°56' W 002°44'1521.7
2016-Jul-26 10:33N 35°42' W 002°48'28 2.8
2016-Jul-26 00:16N 36°09' W 002°40'  
2016-Jul-19 14:16N 36°35' W 002°31'6 0.5
2016-Jul-19 01:22N 36°29' W 002°34'1720.5
2016-Jul-19 00:33N 36°13' W 002°38'4321.2
2016-Jul-18 22:30N 35°31' W 002°51'7 0.3
2016-Jul-17 21:04N 35°25' W 002°55'  
Track history (hours):
 
Tides and Currents Weather Stations Pressure Air Temp Water Temp Dewpoint Dewpoint Depression Visibility Wind Speed Wind Dir Waves Ship Positions

Volcan De Tamasite

Last reported at 2016-Jul-26 22:19 UTC. Time now 2016-Jul-30 18:51 UTC.
Position N 35°33' W 002°58'.

Length 141 m; draft 5.1 m.

Type: Passenger vessel. MMSI: 224093000.

Date/timePositionNaut miles runAvg speedWind from/ knotsBaromVisibWave heightAir tempDewpointWater temp
2016-Jul-26 22:19N 35°33' W 002°58'1621.3
2016-Jul-26 21:33N 35°18' W 002°55'1 1.3
2016-Jul-26 20:32N 35°16' W 002°56'1212.6
2016-Jul-26 19:33N 35°28' W 002°52'2121.4
2016-Jul-26 18:33N 35°49' W 002°46'2222.1
2016-Jul-26 17:33N 36°10' W 002°39'2221.9
2016-Jul-26 16:34N 36°32' W 002°33'1918.6
2016-Jul-26 15:33N 36°50' W 002°28'0 0.0
2016-Jul-26 14:33N 36°50' W 002°28'6 5.9
2016-Jul-26 13:34N 36°44' W 002°29'2221.7
2016-Jul-26 12:34N 36°23' W 002°34'2821.1
2016-Jul-26 11:14N 35°56' W 002°44'1521.7
2016-Jul-26 10:33N 35°42' W 002°48'28 2.8
2016-Jul-26 00:16N 36°09' W 002°40'  
2016-Jul-19 14:16N 36°35' W 002°31'6 0.5
2016-Jul-19 01:22N 36°29' W 002°34'1720.5
2016-Jul-19 00:33N 36°13' W 002°38'4321.2
2016-Jul-18 22:30N 35°31' W 002°51'7 0.3
2016-Jul-17 21:04N 35°25' W 002°55'  

Dump ship's entire track history